Terminal Aerodrome Forecast
Issued by NWS

Home | Current Version | Previous Version | Graphics & Text | Print | Product List | Glossary Off
Versions: 1 2 3 4 5 6 7 8 9 10 11 12 13 14 15 16 17 18 19 20 21 22 23 24 25 26 27 28 29 30 31 32 33 34 35 36 37

000
FTUS43 KGRB 192100 AAA
TAFRHI
TAF AMD
KRHI 192149Z 1922/2018 19017G28KT P6SM SCT040 BKN070
     FM192300 18010KT P6SM BKN035 OVC070 WS010/20035KT
     FM200100 20008KT P6SM SCT010 OVC020 WS010/22035KT
      TEMPO 2002/2005 3SM SHRA OVC007
     FM200800 21008KT 2SM BR OVC004
     FM201600 27008KT P6SM SCT010 BKN100=

USA.gov is the U.S. government's official web portal to all federal, state and local government web resources and services.